Raleigh/Durham International Arpt, NC

7:58 AM EDT on April 29, 2017 (GMT -0400)
Raleigh-Durham International | | Change Station

Elev 433 ft 35.88 °N, 78.79 °W | Updated 7 minutes ago

Mostly Cloudy
Mostly Cloudy
74 °F
Feels Like 74 °F
N
10
Wind Variable Wind from SW

Today
High -- | Low -- °F
--% Chance of Precip.
Yesterday
High -- | Low -- °F
Precip. -- in
Pressure 30.19 in
Visibility 7.0 miles
Clouds Scattered Clouds 1300 ft
Mostly Cloudy 25000 ft
Dew Point 70 °F
Humidity 87%
Rainfall 0.00 in
Snow Depth Not available.
6:24 AM 8:00 PM
Waxing Crescent, 13% visible
METAR KRDU 291151Z 23009KT 7SM SCT013 BKN250 23/21 A3020 RMK AO2 SLP222 T02330211 10244 20222 52013
Pressure 30.19 in
Visibility 7.0 miles
Clouds Scattered Clouds 1300 ft
Mostly Cloudy 25000 ft
Dew Point 70 °F
Humidity 87%
Rainfall 0.00 in
Snow Depth Not available.
6:24 AM 8:00 PM
Waxing Crescent, 13% visible
METAR KRDU 291151Z 23009KT 7SM SCT013 BKN250 23/21 A3020 RMK AO2 SLP222 T02330211 10244 20222 52013

Get Severe Weather Alerts

Thanks for signing up!

Be on the lookout for a verification email in your inbox.

You'll start receiving the daily forecast at 8 AM.

×

10-Day Weather Forecast

Almanac

Astronomy

Apr. 29, 2017 Rise Set
Actual Time
Civil Twilight
Nautical Twilight
Astronomical Twilight
Moon
Length of Visible Light
Length of Day
Tomorrow will be .
, % of the Moon is Illuminated

Today's Extremes

State Highs State Lows

Community

WunderPhotos

WunderBlog® & News

Nearby

Air Quality

  Air Quality AQ Index Pollutant
Not available.

Snow Depth

Station Depth Elevation

Earthquake Activity

City Distance Mag. Time & Date
Minimum magnitude displayed is 2.5.

Coastal Water Temperatures

Place Temperature

Stations

Nearby Weather Stations

Station Location Temp. Windchill Dew Point Humidity Wind Precip. Elev Updated Type
                   

Watches & Warnings

There are currently no watches in effect.